createdAt,value
2022-12-20T00:01:32.860Z,3.67
2022-12-20T00:04:05.514Z,3.64
2022-12-20T00:06:35.882Z,3.61
2022-12-20T00:09:06.001Z,3.58
2022-12-20T00:11:32.945Z,3.56
2022-12-20T00:13:59.579Z,3.68
2022-12-20T00:16:29.435Z,3.80
2022-12-20T00:19:02.694Z,3.76
2022-12-20T00:21:33.382Z,3.71
2022-12-20T00:24:00.362Z,3.66
2022-12-20T00:26:30.651Z,3.78
2022-12-20T00:28:57.890Z,3.86
2022-12-20T00:31:27.283Z,3.98
2022-12-20T00:33:56.356Z,4.11
2022-12-20T00:36:27.144Z,4.13
2022-12-20T00:38:59.011Z,4.09
2022-12-20T00:41:29.788Z,4.13
2022-12-20T00:43:56.424Z,3.99
2022-12-20T00:46:23.653Z,3.91
2022-12-20T00:48:51.137Z,3.95
2022-12-20T00:51:25.096Z,3.92
2022-12-20T00:53:52.313Z,4.11
2022-12-20T00:56:20.188Z,4.09
2022-12-20T00:58:47.669Z,4.01
2022-12-20T01:01:27.502Z,3.89
2022-12-20T01:03:55.100Z,3.82
2022-12-20T01:06:24.954Z,3.75
2022-12-20T01:08:53.998Z,3.70
2022-12-20T01:11:28.498Z,3.74
2022-12-20T01:13:58.421Z,3.94
2022-12-20T01:16:38.488Z,4.06
2022-12-20T01:19:07.235Z,4.18
2022-12-20T01:21:34.160Z,4.27
2022-12-20T01:24:01.317Z,4.27
2022-12-20T01:26:30.151Z,4.38
2022-12-20T01:29:00.190Z,4.40
2022-12-20T01:31:29.590Z,4.41
2022-12-20T01:33:56.714Z,4.29
2022-12-20T01:36:27.877Z,4.23
2022-12-20T01:39:04.072Z,4.13
2022-12-20T01:41:33.182Z,4.07
2022-12-20T01:44:27.080Z,4.01
2022-12-20T01:46:54.821Z,3.88
2022-12-20T01:49:31.749Z,3.82
2022-12-20T01:52:29.125Z,3.83
2022-12-20T01:55:10.072Z,3.94
2022-12-20T01:57:49.331Z,4.01
2022-12-20T02:00:17.211Z,4.17
2022-12-20T02:02:47.685Z,4.19
2022-12-20T02:05:16.912Z,4.13
2022-12-20T02:07:48.459Z,4.01
2022-12-20T02:10:16.897Z,3.98
2022-12-20T02:12:48.488Z,3.95
2022-12-20T02:15:57.883Z,3.87
2022-12-20T02:18:31.784Z,3.91
2022-12-20T02:21:25.886Z,3.85
2022-12-20T02:24:31.274Z,3.66
2022-12-20T02:27:31.899Z,3.63
2022-12-20T02:30:03.199Z,3.68
2022-12-20T02:33:02.189Z,3.64
2022-12-20T02:35:33.478Z,3.62
2022-12-20T02:38:23.579Z,3.69
2022-12-20T02:40:57.597Z,3.58
2022-12-20T02:43:46.278Z,3.55
2022-12-20T02:46:15.592Z,3.67
2022-12-20T02:48:42.928Z,3.66
2022-12-20T02:51:11.913Z,3.59
2022-12-20T02:53:39.278Z,3.71
2022-12-20T02:56:36.112Z,3.76
2022-12-20T02:59:14.965Z,3.86
2022-12-20T03:01:51.027Z,3.86
2022-12-20T03:04:21.676Z,3.81
2022-12-20T03:07:01.301Z,3.72
2022-12-20T03:09:30.791Z,3.86
2022-12-20T03:11:57.808Z,3.92
2022-12-20T03:14:24.707Z,3.92
2022-12-20T03:16:51.330Z,4.00
2022-12-20T03:19:18.150Z,4.07
2022-12-20T03:21:44.819Z,4.14
2022-12-20T03:24:13.450Z,4.01
2022-12-20T03:26:41.335Z,3.92
2022-12-20T03:29:07.969Z,3.83
2022-12-20T03:31:35.231Z,3.53
2022-12-20T03:34:02.688Z,3.67
2022-12-20T03:36:29.573Z,3.82
2022-12-20T03:38:56.670Z,3.81
2022-12-20T03:41:24.763Z,3.64
2022-12-20T03:43:52.975Z,3.55
2022-12-20T03:46:19.880Z,3.55
2022-12-20T03:48:46.461Z,3.56
2022-12-20T03:51:12.957Z,3.46
2022-12-20T03:53:39.473Z,3.57
2022-12-20T03:56:06.424Z,3.54
2022-12-20T03:58:32.891Z,3.49
2022-12-20T04:00:59.463Z,3.58
2022-12-20T04:03:26.035Z,3.68
2022-12-20T04:05:52.647Z,3.76
2022-12-20T04:08:19.123Z,3.83
2022-12-20T04:11:04.145Z,3.62
2022-12-20T04:13:30.604Z,3.54
2022-12-20T04:16:00.629Z,3.62
2022-12-20T04:18:27.232Z,3.81
2022-12-20T04:20:54.747Z,3.82
2022-12-20T04:23:21.176Z,3.85
2022-12-20T04:25:47.619Z,3.79
2022-12-20T04:28:14.107Z,3.75
2022-12-20T04:30:40.607Z,3.85
2022-12-20T04:33:07.093Z,3.97
2022-12-20T04:35:33.573Z,3.90
2022-12-20T04:38:00.137Z,3.83
2022-12-20T04:40:26.637Z,3.64
2022-12-20T04:42:53.165Z,3.73
2022-12-20T04:45:19.649Z,3.90
2022-12-20T04:47:46.147Z,3.97
2022-12-20T04:50:12.860Z,4.09
2022-12-20T04:53:05.696Z,4.24
2022-12-20T04:55:38.627Z,4.23
2022-12-20T04:58:07.819Z,4.32
2022-12-20T05:00:35.346Z,4.34
2022-12-20T05:03:02.076Z,4.40
2022-12-20T05:05:28.940Z,4.47
2022-12-20T05:07:56.037Z,4.34
2022-12-20T05:10:22.778Z,4.27
2022-12-20T05:12:49.499Z,4.24
2022-12-20T05:15:16.019Z,4.23
2022-12-20T05:17:42.599Z,4.27
2022-12-20T05:20:10.787Z,4.33
2022-12-20T05:22:56.163Z,4.40
2022-12-20T05:25:41.373Z,4.43
2022-12-20T05:28:08.090Z,4.43
2022-12-20T05:30:34.624Z,4.53
2022-12-20T05:33:01.084Z,4.60
2022-12-20T05:35:27.536Z,4.71
2022-12-20T05:37:54.120Z,4.72
2022-12-20T05:40:20.639Z,4.63
2022-12-20T05:42:47.075Z,4.66
2022-12-20T05:45:13.669Z,4.61
2022-12-20T05:47:40.136Z,4.54
2022-12-20T05:50:12.350Z,4.52
2022-12-20T05:52:43.157Z,4.13
2022-12-20T05:55:10.436Z,4.22
2022-12-20T05:57:37.001Z,4.35
2022-12-20T06:00:06.128Z,4.48
2022-12-20T06:02:32.885Z,4.56
2022-12-20T06:04:59.747Z,4.59
2022-12-20T06:07:28.911Z,4.48
2022-12-20T06:09:56.486Z,4.56
2022-12-20T06:12:23.271Z,4.58
2022-12-20T06:14:50.061Z,4.60
2022-12-20T06:17:18.678Z,4.52
2022-12-20T06:19:45.216Z,4.47
2022-12-20T06:22:11.657Z,4.53
2022-12-20T06:24:44.328Z,4.53
2022-12-20T06:27:14.367Z,4.47
2022-12-20T06:29:40.864Z,4.40
2022-12-20T06:32:07.396Z,4.31
2022-12-20T06:34:34.016Z,4.23
2022-12-20T06:37:00.539Z,4.21
2022-12-20T06:39:27.034Z,4.31
2022-12-20T06:41:53.562Z,4.38
2022-12-20T06:44:20.090Z,4.43
2022-12-20T06:46:46.681Z,4.32
2022-12-20T06:49:13.198Z,4.34
2022-12-20T06:51:39.712Z,4.42
2022-12-20T06:54:06.227Z,4.56
2022-12-20T06:56:39.264Z,4.59
2022-12-20T06:59:07.722Z,4.56
2022-12-20T07:01:34.372Z,4.51
2022-12-20T07:04:00.964Z,4.47
2022-12-20T07:06:29.281Z,4.38
2022-12-20T07:08:56.274Z,4.43
2022-12-20T07:11:22.817Z,4.32
2022-12-20T07:13:50.197Z,4.32
2022-12-20T07:16:16.746Z,4.44
2022-12-20T07:18:43.287Z,4.59
2022-12-20T07:21:09.822Z,4.60
2022-12-20T07:23:36.283Z,4.61
2022-12-20T07:26:03.915Z,4.51
2022-12-20T07:28:30.639Z,4.50
2022-12-20T07:31:02.133Z,4.42
2022-12-20T07:33:29.695Z,4.40
2022-12-20T07:36:06.917Z,4.40
2022-12-20T07:38:35.621Z,4.39
2022-12-20T07:41:12.259Z,4.37
2022-12-20T07:43:39.198Z,4.23
2022-12-20T07:46:08.005Z,4.45
2022-12-20T07:48:36.051Z,4.39
2022-12-20T07:51:18.007Z,4.31
2022-12-20T07:53:52.657Z,4.29
2022-12-20T07:56:22.374Z,4.32
2022-12-20T07:58:53.395Z,4.27
2022-12-20T08:01:21.443Z,4.28
2022-12-20T08:03:58.194Z,4.28
2022-12-20T08:06:24.612Z,3.90
2022-12-20T08:08:58.679Z,3.94
2022-12-20T08:11:27.819Z,4.12
2022-12-20T08:13:58.112Z,4.27
2022-12-20T08:16:25.568Z,4.34
2022-12-20T08:18:52.286Z,4.44
2022-12-20T08:21:19.133Z,4.50
2022-12-20T08:23:45.940Z,4.63
2022-12-20T08:26:12.482Z,4.66
2022-12-20T08:28:39.064Z,4.55
2022-12-20T08:31:08.284Z,4.63
2022-12-20T08:33:37.654Z,4.71
2022-12-20T08:36:09.724Z,4.73
2022-12-20T08:38:37.303Z,4.72
2022-12-20T08:41:15.283Z,4.71
2022-12-20T08:43:42.962Z,4.74
2022-12-20T08:46:12.400Z,4.66
2022-12-20T08:48:39.790Z,4.72
2022-12-20T08:51:10.920Z,4.79
2022-12-20T08:53:38.558Z,4.88
2022-12-20T08:56:14.595Z,4.88
2022-12-20T08:58:42.898Z,4.92
2022-12-20T09:01:13.754Z,4.91
2022-12-20T09:03:41.356Z,5.02
2022-12-20T09:06:21.010Z,5.13
2022-12-20T09:08:48.771Z,5.22
2022-12-20T09:11:19.205Z,5.23
2022-12-20T09:13:50.413Z,5.13
2022-12-20T09:16:20.812Z,5.13
2022-12-20T09:19:04.213Z,5.13
2022-12-20T09:21:32.507Z,5.09
2022-12-20T09:23:59.156Z,5.09
2022-12-20T09:26:26.463Z,5.12
2022-12-20T09:28:53.828Z,4.95
2022-12-20T09:31:24.072Z,4.85
2022-12-20T09:33:55.321Z,4.86
2022-12-20T09:36:24.845Z,4.99
2022-12-20T09:38:52.231Z,4.98
2022-12-20T09:41:29.933Z,5.01
2022-12-20T09:44:00.405Z,5.14
2022-12-20T09:46:28.044Z,5.30
2022-12-20T09:48:57.529Z,5.34
2022-12-20T09:51:54.482Z,5.29
2022-12-20T09:54:46.420Z,5.17
2022-12-20T09:57:32.877Z,5.31
2022-12-20T09:59:59.498Z,5.35
2022-12-20T10:05:41.811Z,5.39
2022-12-20T10:08:31.840Z,5.57
2022-12-20T10:11:50.127Z,5.54
2022-12-20T10:14:38.179Z,5.65
2022-12-20T10:17:15.579Z,5.61
2022-12-20T10:20:09.705Z,5.71
2022-12-20T10:22:53.005Z,5.77
2022-12-20T10:25:30.103Z,5.87
2022-12-20T10:27:57.904Z,5.96
2022-12-20T10:30:28.600Z,5.99
2022-12-20T10:32:58.672Z,6.05
2022-12-20T10:35:33.911Z,6.09
2022-12-20T10:38:08.784Z,6.10
2022-12-20T10:41:20.598Z,5.89
2022-12-20T10:43:52.500Z,5.75
2022-12-20T10:46:19.571Z,5.89
2022-12-20T10:48:48.903Z,5.99
2022-12-20T10:51:22.565Z,6.04
2022-12-20T10:54:19.913Z,6.10
2022-12-20T10:57:00.324Z,6.09
2022-12-20T10:59:39.753Z,6.17
2022-12-20T11:02:40.903Z,6.10
2022-12-20T11:05:11.443Z,6.19
2022-12-20T11:11:22.330Z,6.26
2022-12-20T11:13:50.804Z,6.27
2022-12-20T11:16:39.959Z,6.19
2022-12-20T11:19:34.834Z,6.25
2022-12-20T11:22:06.130Z,6.30
2022-12-20T11:25:00.091Z,6.42
2022-12-20T11:27:51.694Z,6.22
2022-12-20T11:31:17.685Z,6.36
2022-12-20T11:34:30.556Z,6.50
2022-12-20T11:37:19.551Z,6.53
2022-12-20T11:39:58.064Z,6.45
2022-12-20T11:42:58.127Z,6.29
2022-12-20T11:45:45.875Z,6.24
2022-12-20T11:48:41.895Z,6.35
2022-12-20T11:51:47.777Z,6.35
2022-12-20T11:54:37.530Z,6.33
2022-12-20T11:57:16.561Z,6.47
2022-12-20T12:00:00.206Z,6.61
2022-12-20T12:02:58.420Z,6.61
2022-12-20T12:05:47.241Z,6.56
2022-12-20T12:08:23.409Z,6.37
2022-12-20T12:11:39.951Z,6.21
2022-12-20T12:14:05.839Z,6.16
2022-12-20T12:16:40.236Z,6.17
2022-12-20T12:19:12.515Z,6.19
2022-12-20T12:21:57.929Z,6.23
2022-12-20T12:24:42.450Z,6.27
2022-12-20T12:27:23.644Z,6.26
2022-12-20T12:29:53.047Z,6.36
2022-12-20T12:32:43.947Z,6.48
2022-12-20T12:35:51.719Z,6.53
2022-12-20T12:39:02.522Z,6.64
2022-12-20T12:41:54.153Z,6.59
2022-12-20T12:44:36.585Z,6.61
2022-12-20T12:47:16.662Z,6.46
2022-12-20T12:49:49.772Z,6.48
2022-12-20T12:52:57.272Z,6.39
2022-12-20T12:55:46.467Z,6.39
2022-12-20T12:58:24.826Z,6.48
2022-12-20T13:01:18.690Z,6.58
2022-12-20T13:04:29.592Z,6.61
2022-12-20T13:07:04.032Z,6.68
2022-12-20T13:09:30.423Z,6.75
2022-12-20T13:12:02.452Z,6.81
2022-12-20T13:14:32.069Z,6.88
2022-12-20T13:17:13.147Z,6.81
2022-12-20T13:19:54.639Z,6.57
2022-12-20T13:22:26.323Z,6.61
2022-12-20T13:24:58.139Z,6.67
2022-12-20T13:27:38.910Z,6.76
2022-12-20T13:30:05.474Z,6.86
2022-12-20T13:32:47.277Z,6.88
2022-12-20T13:35:25.704Z,6.88
2022-12-20T13:38:06.923Z,6.93
2022-12-20T13:40:39.320Z,6.94
2022-12-20T13:43:12.235Z,6.84
2022-12-20T13:45:43.358Z,6.80
2022-12-20T13:48:18.849Z,6.88
2022-12-20T13:50:54.542Z,6.79
2022-12-20T13:53:27.624Z,6.74
2022-12-20T13:55:54.752Z,6.81
2022-12-20T13:58:34.363Z,6.90
2022-12-20T14:01:11.415Z,6.88
2022-12-20T14:03:46.686Z,6.71
2022-12-20T14:06:15.605Z,6.72
2022-12-20T14:08:48.526Z,6.75
2022-12-20T14:11:20.279Z,6.84
2022-12-20T14:13:55.516Z,6.91
2022-12-20T14:16:25.634Z,6.94
2022-12-20T14:18:58.133Z,6.80
2022-12-20T14:21:26.366Z,6.80
2022-12-20T14:23:58.708Z,6.76
2022-12-20T14:26:29.762Z,6.72
2022-12-20T14:29:00.235Z,6.70
2022-12-20T14:31:38.170Z,6.64
2022-12-20T14:34:15.179Z,6.58
2022-12-20T14:36:48.576Z,6.59
2022-12-20T14:39:33.559Z,6.45
2022-12-20T14:42:07.420Z,6.32
2022-12-20T14:44:34.879Z,6.35
2022-12-20T14:47:18.394Z,6.41
2022-12-20T14:50:20.478Z,6.45
2022-12-20T14:52:47.419Z,6.57
2022-12-20T14:55:25.251Z,6.63
2022-12-20T14:57:55.721Z,6.77
2022-12-20T15:00:29.655Z,6.76
2022-12-20T15:02:56.173Z,6.74
2022-12-20T15:05:38.672Z,6.66
2022-12-20T15:08:29.288Z,6.63
2022-12-20T15:11:11.308Z,6.69
2022-12-20T15:13:43.628Z,6.74
2022-12-20T15:16:18.351Z,6.56
2022-12-20T15:18:46.442Z,6.55
2022-12-20T15:21:24.195Z,6.40
2022-12-20T15:23:55.054Z,6.37
2022-12-20T15:26:27.224Z,6.43
2022-12-20T15:28:54.608Z,6.48
2022-12-20T15:31:30.690Z,6.33
2022-12-20T15:33:59.306Z,6.26
2022-12-20T15:36:29.181Z,6.31
2022-12-20T15:39:14.728Z,6.39
2022-12-20T15:41:47.276Z,6.29
2022-12-20T15:44:22.507Z,6.16
2022-12-20T15:46:49.463Z,6.24
2022-12-20T15:49:22.925Z,6.28
2022-12-20T15:51:52.468Z,6.24
2022-12-20T15:54:32.819Z,6.05
2022-12-20T15:57:07.535Z,5.96
2022-12-20T16:02:26.213Z,6.14
2022-12-20T16:04:55.124Z,6.17
2022-12-20T16:07:21.877Z,6.15
2022-12-20T16:09:48.486Z,6.08
2022-12-20T16:12:19.887Z,5.98
2022-12-20T16:14:46.411Z,6.09
2022-12-20T16:17:16.333Z,6.20
2022-12-20T16:19:43.711Z,6.33
2022-12-20T16:22:24.153Z,6.27
2022-12-20T16:24:51.724Z,6.18
2022-12-20T16:27:18.491Z,6.17
2022-12-20T16:29:45.273Z,6.07
2022-12-20T16:32:19.525Z,6.07
2022-12-20T16:34:48.475Z,6.19
2022-12-20T16:37:15.015Z,6.07
2022-12-20T16:39:42.390Z,6.07
2022-12-20T16:42:17.999Z,6.13
2022-12-20T16:44:45.998Z,6.06
2022-12-20T16:47:13.986Z,6.00
2022-12-20T16:49:47.287Z,6.00
2022-12-20T16:52:19.975Z,6.00
2022-12-20T16:54:46.982Z,6.03
2022-12-20T16:57:13.544Z,5.87
2022-12-20T16:59:40.060Z,5.91
2022-12-20T17:02:29.728Z,6.00
2022-12-20T17:04:56.615Z,6.16
2022-12-20T17:07:23.106Z,6.20
2022-12-20T17:09:49.708Z,6.19
2022-12-20T17:12:19.166Z,6.17
2022-12-20T17:14:46.399Z,6.24
2022-12-20T17:17:13.531Z,6.22
2022-12-20T17:19:40.012Z,6.23
2022-12-20T17:24:51.622Z,6.42
2022-12-20T17:27:18.972Z,6.43
2022-12-20T17:29:45.612Z,6.27
2022-12-20T17:32:29.903Z,6.15
2022-12-20T17:34:56.430Z,6.28
2022-12-20T17:37:24.466Z,6.30
2022-12-20T17:39:50.970Z,6.25
2022-12-20T17:42:17.464Z,6.31
2022-12-20T17:44:44.025Z,6.33
2022-12-20T17:47:11.444Z,6.23
2022-12-20T17:49:38.065Z,6.22
2022-12-20T17:52:04.647Z,6.28
2022-12-20T17:54:38.901Z,6.32
2022-12-20T17:57:11.691Z,6.36
2022-12-20T17:59:38.142Z,6.30
2022-12-20T18:02:20.664Z,6.08
2022-12-20T18:04:47.428Z,5.97
2022-12-20T18:07:14.022Z,5.88
2022-12-20T18:09:40.517Z,5.83
2022-12-20T18:12:08.149Z,6.00
2022-12-20T18:14:34.625Z,5.96
2022-12-20T18:17:01.184Z,5.96
2022-12-20T18:19:27.664Z,6.03
2022-12-20T18:21:54.100Z,6.12
2022-12-20T18:24:21.446Z,6.20
2022-12-20T18:26:47.961Z,6.23
2022-12-20T18:29:14.549Z,6.28
2022-12-20T18:31:41.116Z,6.38
2022-12-20T18:34:07.888Z,6.37
2022-12-20T18:36:37.366Z,6.38
2022-12-20T18:39:07.821Z,6.35
2022-12-20T18:41:35.354Z,6.33
2022-12-20T18:44:08.086Z,6.32
2022-12-20T18:46:34.692Z,6.28
2022-12-20T18:49:02.356Z,6.18
2022-12-20T18:51:38.581Z,6.23
2022-12-20T18:54:08.321Z,6.08
2022-12-20T18:56:38.410Z,5.97
2022-12-20T18:59:13.838Z,6.13
2022-12-20T19:01:43.194Z,6.16
2022-12-20T19:04:10.744Z,6.23
2022-12-20T19:06:38.017Z,6.28
2022-12-20T19:09:13.330Z,6.24
2022-12-20T19:11:40.330Z,6.17
2022-12-20T19:14:07.811Z,6.14
2022-12-20T19:16:35.357Z,6.19
2022-12-20T19:19:03.664Z,6.23
2022-12-20T19:21:33.793Z,6.25
2022-12-20T19:24:05.487Z,6.24
2022-12-20T19:26:32.712Z,6.35
2022-12-20T19:28:59.965Z,6.35
2022-12-20T19:31:32.052Z,6.40
2022-12-20T19:34:07.256Z,6.48
2022-12-20T19:36:45.363Z,6.48
2022-12-20T19:39:20.363Z,6.41
2022-12-20T19:42:13.995Z,6.29
2022-12-20T19:44:34.610Z,6.18
2022-12-20T19:47:07.151Z,6.27
2022-12-20T19:49:35.828Z,6.40
2022-12-20T19:52:03.279Z,6.51
2022-12-20T19:54:29.789Z,6.50
2022-12-20T19:56:57.403Z,6.36
2022-12-20T19:59:24.563Z,6.22
2022-12-20T20:01:51.199Z,6.29
2022-12-20T20:04:17.768Z,6.30
2022-12-20T20:06:44.705Z,6.33
2022-12-20T20:09:11.346Z,6.36
2022-12-20T20:11:37.853Z,6.43
2022-12-20T20:14:04.890Z,6.38
2022-12-20T20:16:32.499Z,6.26
2022-12-20T20:18:59.040Z,6.16
2022-12-20T20:21:25.557Z,6.24
2022-12-20T20:23:54.550Z,6.32
2022-12-20T20:26:29.128Z,6.33
2022-12-20T20:28:55.631Z,6.39
2022-12-20T20:31:22.252Z,6.36
2022-12-20T20:33:50.705Z,6.40
2022-12-20T20:36:22.218Z,6.49
2022-12-20T20:38:50.546Z,6.33
2022-12-20T20:41:18.178Z,6.28
2022-12-20T20:43:45.038Z,6.33
2022-12-20T20:46:15.088Z,6.39
2022-12-20T20:48:42.918Z,6.37
2022-12-20T20:51:10.513Z,6.32
2022-12-20T20:53:37.475Z,6.39
2022-12-20T20:56:06.379Z,6.46
2022-12-20T20:58:34.585Z,6.50
2022-12-20T21:01:05.312Z,6.51
2022-12-20T21:03:32.544Z,6.52
2022-12-20T21:06:35.021Z,6.58
2022-12-20T21:08:45.937Z,6.55
2022-12-20T21:11:12.905Z,6.46
2022-12-20T21:13:39.823Z,6.44
2022-12-20T21:16:20.106Z,6.45
2022-12-20T21:18:54.990Z,6.46
2022-12-20T21:21:23.049Z,6.50
2022-12-20T21:23:50.609Z,6.52
2022-12-20T21:26:19.720Z,6.57
2022-12-20T21:28:46.294Z,6.58
2022-12-20T21:31:17.291Z,6.66
2022-12-20T21:33:45.949Z,6.70
2022-12-20T21:36:19.131Z,6.82
2022-12-20T21:38:51.092Z,6.95
2022-12-20T21:41:20.685Z,7.07
2022-12-20T21:43:47.228Z,7.17
2022-12-20T21:46:13.747Z,7.30
2022-12-20T21:48:43.068Z,7.40
2022-12-20T21:51:21.052Z,7.52
2022-12-20T21:53:51.267Z,7.62
2022-12-20T21:56:19.920Z,7.70
2022-12-20T21:58:47.696Z,7.82
2022-12-20T22:01:20.089Z,7.84
2022-12-20T22:04:01.702Z,7.93
2022-12-20T22:06:28.944Z,8.02
2022-12-20T22:08:59.874Z,8.01
2022-12-20T22:11:27.249Z,8.06
2022-12-20T22:13:55.677Z,8.15
2022-12-20T22:16:26.077Z,8.24
2022-12-20T22:18:55.204Z,8.31
2022-12-20T22:21:25.992Z,8.34
2022-12-20T22:23:55.501Z,8.29
2022-12-20T22:26:25.885Z,8.34
2022-12-20T22:28:59.039Z,8.29
2022-12-20T22:31:26.302Z,8.35
2022-12-20T22:33:55.322Z,8.37
2022-12-20T22:36:22.805Z,8.42
2022-12-20T22:38:54.916Z,8.52
2022-12-20T22:41:27.159Z,8.59
2022-12-20T22:43:54.205Z,8.64
2022-12-20T22:46:21.251Z,8.68
2022-12-20T22:48:47.911Z,8.72
2022-12-20T22:51:18.810Z,8.70
2022-12-20T22:53:47.469Z,8.65
2022-12-20T22:56:17.455Z,8.67
2022-12-20T22:58:44.466Z,8.69
2022-12-20T23:01:15.182Z,8.64
2022-12-20T23:03:42.914Z,8.67
2022-12-20T23:06:15.254Z,8.69
2022-12-20T23:08:42.785Z,8.73
2022-12-20T23:11:43.933Z,8.76
2022-12-20T23:14:39.449Z,8.71
2022-12-20T23:17:09.215Z,8.76
2022-12-20T23:19:54.573Z,8.80
2022-12-20T23:22:39.224Z,8.84
2022-12-20T23:25:18.159Z,8.76
2022-12-20T23:27:48.483Z,8.84
2022-12-20T23:30:19.432Z,8.84
2022-12-20T23:32:46.640Z,8.82
2022-12-20T23:35:19.466Z,8.86
2022-12-20T23:37:46.879Z,8.89
2022-12-20T23:40:15.235Z,8.93
2022-12-20T23:42:42.178Z,9.00
2022-12-20T23:45:10.456Z,9.04
2022-12-20T23:47:37.101Z,9.08
2022-12-20T23:50:04.233Z,9.14
2022-12-20T23:52:30.779Z,9.19
2022-12-20T23:54:57.216Z,9.21
2022-12-20T23:57:23.678Z,9.17
2022-12-20T23:59:50.426Z,9.14
